Portada
METAR-TAF:

METAR-TAF

Aeroports :

Skelton Airport

Eureka, Alaska, Estats Units d'Amèrica

latitud: 61-56N, longitud: 147-10W, altitud: 1002 m

Observació

L'informe es va fer fa 13 minuts, a les 10:10 UTC
Vent 5 kt del Nord
Temperatura -3°C
Humitat 93%
Pressió 991 hPa
Visibilitat: 12.9 km
Núvols disperses a una alçada de 1000 ft
Cel ennuvolat a una alçada de 2300 ft
Cel cobert a una alçada de 9500 ft
neu

METAR: PAZK 181010Z AUTO 01005KT 8SM -SN SCT010 BKN023 OVC095 M03/M04 A2927 RMK AO2 P0000 FZRANO

Hora: 02:23 (10:23 UTC)


TAF: manca

Observacions i pronòstics meteorològics de més de 4000 aeroports (METAR i TAF).

Les estacions disponibles són els punts grocs i vermells al mapa.

Posi el ratolí al punt desitjat per veure el nom de l'estació.

Feu clic per veure les observacions i els pronòstics meteorològics.

Per canviar el mapa: feu clic els botons verds amb una creu de color negre per apropar; al botó verd amb un guió per allunyar la imatge; o en les fletxes verdes per a mapes adjacents.


METAR-TAF: